sensor_id;sensor_type;location;lat;lon;timestamp;temperature;humidity
57566;DHT22;63999;43.882;-0.310;2023-03-14T00:00:15;14.60;72.70
57566;DHT22;63999;43.882;-0.310;2023-03-14T00:02:50;14.60;72.80
57566;DHT22;63999;43.882;-0.310;2023-03-14T00:05:33;14.60;72.90
57566;DHT22;63999;43.882;-0.310;2023-03-14T00:07:59;14.60;73.30
57566;DHT22;63999;43.882;-0.310;2023-03-14T00:10:25;14.60;72.50
57566;DHT22;63999;43.882;-0.310;2023-03-14T00:12:51;14.50;72.30
57566;DHT22;63999;43.882;-0.310;2023-03-14T00:15:16;14.50;72.20
57566;DHT22;63999;43.882;-0.310;2023-03-14T00:17:43;14.50;71.90
57566;DHT22;63999;43.882;-0.310;2023-03-14T00:20:10;14.40;71.80
57566;DHT22;63999;43.882;-0.310;2023-03-14T00:22:40;14.40;71.50
57566;DHT22;63999;43.882;-0.310;2023-03-14T00:25:09;14.40;71.60
57566;DHT22;63999;43.882;-0.310;2023-03-14T00:27:36;14.40;71.40
57566;DHT22;63999;43.882;-0.310;2023-03-14T00:30:05;14.30;71.40
57566;DHT22;63999;43.882;-0.310;2023-03-14T00:32:35;14.40;71.50
57566;DHT22;63999;43.882;-0.310;2023-03-14T00:35:02;14.40;70.50
57566;DHT22;63999;43.882;-0.310;2023-03-14T00:37:29;14.30;70.50
57566;DHT22;63999;43.882;-0.310;2023-03-14T00:39:55;14.30;70.60
57566;DHT22;63999;43.882;-0.310;2023-03-14T00:42:21;14.20;70.70
57566;DHT22;63999;43.882;-0.310;2023-03-14T00:44:48;14.30;70.70
57566;DHT22;63999;43.882;-0.310;2023-03-14T00:47:17;14.30;70.70
57566;DHT22;63999;43.882;-0.310;2023-03-14T00:49:44;14.30;71.00
57566;DHT22;63999;43.882;-0.310;2023-03-14T00:52:13;14.30;70.50
57566;DHT22;63999;43.882;-0.310;2023-03-14T00:54:38;14.30;70.60
57566;DHT22;63999;43.882;-0.310;2023-03-14T00:57:04;14.30;70.70
57566;DHT22;63999;43.882;-0.310;2023-03-14T00:59:30;14.20;70.20
57566;DHT22;63999;43.882;-0.310;2023-03-14T01:01:56;14.20;70.70
57566;DHT22;63999;43.882;-0.310;2023-03-14T01:04:22;14.20;70.70
57566;DHT22;63999;43.882;-0.310;2023-03-14T01:06:48;14.20;70.90
57566;DHT22;63999;43.882;-0.310;2023-03-14T01:09:13;14.20;71.30
57566;DHT22;63999;43.882;-0.310;2023-03-14T01:11:40;14.20;71.20
57566;DHT22;63999;43.882;-0.310;2023-03-14T01:14:08;14.20;71.50
57566;DHT22;63999;43.882;-0.310;2023-03-14T01:16:38;14.20;71.90
57566;DHT22;63999;43.882;-0.310;2023-03-14T01:19:04;14.20;72.00
57566;DHT22;63999;43.882;-0.310;2023-03-14T01:21:33;14.30;72.10
57566;DHT22;63999;43.882;-0.310;2023-03-14T01:24:02;14.30;72.20
57566;DHT22;63999;43.882;-0.310;2023-03-14T01:26:32;14.30;72.10
57566;DHT22;63999;43.882;-0.310;2023-03-14T01:29:05;14.30;72.20
57566;DHT22;63999;43.882;-0.310;2023-03-14T01:31:37;14.30;72.30
57566;DHT22;63999;43.882;-0.310;2023-03-14T01:34:04;14.20;72.50
57566;DHT22;63999;43.882;-0.310;2023-03-14T01:36:30;14.20;72.60
57566;DHT22;63999;43.882;-0.310;2023-03-14T01:38:56;14.30;72.60
57566;DHT22;63999;43.882;-0.310;2023-03-14T01:41:24;14.30;72.80
57566;DHT22;63999;43.882;-0.310;2023-03-14T01:43:51;14.20;72.90
57566;DHT22;63999;43.882;-0.310;2023-03-14T01:49:46;14.30;73.30
57566;DHT22;63999;43.882;-0.310;2023-03-14T01:52:29;14.30;73.20
57566;DHT22;63999;43.882;-0.310;2023-03-14T01:55:06;14.30;73.40
57566;DHT22;63999;43.882;-0.310;2023-03-14T01:57:37;14.30;73.30
57566;DHT22;63999;43.882;-0.310;2023-03-14T02:00:08;14.20;73.40
57566;DHT22;63999;43.882;-0.310;2023-03-14T02:02:44;14.20;73.50
57566;DHT22;63999;43.882;-0.310;2023-03-14T02:05:14;14.20;73.70
57566;DHT22;63999;43.882;-0.310;2023-03-14T02:07:56;14.20;73.80
57566;DHT22;63999;43.882;-0.310;2023-03-14T02:10:37;14.20;73.70
57566;DHT22;63999;43.882;-0.310;2023-03-14T02:13:07;14.20;73.80
57566;DHT22;63999;43.882;-0.310;2023-03-14T02:15:34;14.20;73.80
57566;DHT22;63999;43.882;-0.310;2023-03-14T02:18:02;14.20;74.00
57566;DHT22;63999;43.882;-0.310;2023-03-14T02:28:40;14.30;74.50
57566;DHT22;63999;43.882;-0.310;2023-03-14T02:31:06;14.30;74.70
57566;DHT22;63999;43.882;-0.310;2023-03-14T02:33:35;14.30;74.30
57566;DHT22;63999;43.882;-0.310;2023-03-14T02:36:07;14.30;74.40
57566;DHT22;63999;43.882;-0.310;2023-03-14T02:41:07;14.20;74.50
57566;DHT22;63999;43.882;-0.310;2023-03-14T02:43:33;14.20;74.50
57566;DHT22;63999;43.882;-0.310;2023-03-14T02:46:01;14.20;74.60
57566;DHT22;63999;43.882;-0.310;2023-03-14T02:48:58;14.20;74.60
57566;DHT22;63999;43.882;-0.310;2023-03-14T02:51:22;14.10;74.60
57566;DHT22;63999;43.882;-0.310;2023-03-14T02:53:49;14.10;74.70
57566;DHT22;63999;43.882;-0.310;2023-03-14T02:56:15;14.00;74.80
57566;DHT22;63999;43.882;-0.310;2023-03-14T02:58:44;14.00;75.00
57566;DHT22;63999;43.882;-0.310;2023-03-14T03:01:11;14.00;74.70
57566;DHT22;63999;43.882;-0.310;2023-03-14T03:03:37;14.00;74.80
57566;DHT22;63999;43.882;-0.310;2023-03-14T03:06:06;14.00;74.70
57566;DHT22;63999;43.882;-0.310;2023-03-14T03:08:32;13.90;74.70
57566;DHT22;63999;43.882;-0.310;2023-03-14T03:10:59;13.90;75.00
57566;DHT22;63999;43.882;-0.310;2023-03-14T03:13:25;13.90;74.90
57566;DHT22;63999;43.882;-0.310;2023-03-14T03:15:51;13.90;75.00
57566;DHT22;63999;43.882;-0.310;2023-03-14T03:18:17;13.90;75.10
57566;DHT22;63999;43.882;-0.310;2023-03-14T03:20:44;13.90;75.10
57566;DHT22;63999;43.882;-0.310;2023-03-14T03:23:13;13.90;75.20
57566;DHT22;63999;43.882;-0.310;2023-03-14T03:25:39;13.90;75.20
57566;DHT22;63999;43.882;-0.310;2023-03-14T03:28:09;13.90;75.20
57566;DHT22;63999;43.882;-0.310;2023-03-14T03:30:39;13.90;75.10
57566;DHT22;63999;43.882;-0.310;2023-03-14T03:33:09;13.90;75.40
57566;DHT22;63999;43.882;-0.310;2023-03-14T03:35:48;13.90;75.20
57566;DHT22;63999;43.882;-0.310;2023-03-14T03:38:19;13.90;75.30
57566;DHT22;63999;43.882;-0.310;2023-03-14T03:40:45;14.00;75.40
57566;DHT22;63999;43.882;-0.310;2023-03-14T03:43:15;13.90;75.30
57566;DHT22;63999;43.882;-0.310;2023-03-14T03:45:41;13.90;75.20
57566;DHT22;63999;43.882;-0.310;2023-03-14T03:48:14;13.90;75.20
57566;DHT22;63999;43.882;-0.310;2023-03-14T03:50:46;13.90;75.50
57566;DHT22;63999;43.882;-0.310;2023-03-14T03:53:13;13.90;75.50
57566;DHT22;63999;43.882;-0.310;2023-03-14T03:55:42;13.90;75.40
57566;DHT22;63999;43.882;-0.310;2023-03-14T03:58:08;13.90;75.20
57566;DHT22;63999;43.882;-0.310;2023-03-14T04:00:36;13.90;75.10
57566;DHT22;63999;43.882;-0.310;2023-03-14T04:03:05;13.90;75.00
57566;DHT22;63999;43.882;-0.310;2023-03-14T04:05:33;13.90;75.20
57566;DHT22;63999;43.882;-0.310;2023-03-14T04:08:00;13.90;75.20
57566;DHT22;63999;43.882;-0.310;2023-03-14T04:10:27;13.90;75.10
57566;DHT22;63999;43.882;-0.310;2023-03-14T04:12:53;13.90;74.90
57566;DHT22;63999;43.882;-0.310;2023-03-14T04:15:20;13.80;75.10
57566;DHT22;63999;43.882;-0.310;2023-03-14T04:17:46;13.90;75.10
57566;DHT22;63999;43.882;-0.310;2023-03-14T04:20:12;13.90;74.90
57566;DHT22;63999;43.882;-0.310;2023-03-14T04:22:38;13.80;74.80
57566;DHT22;63999;43.882;-0.310;2023-03-14T04:25:05;13.80;74.90
57566;DHT22;63999;43.882;-0.310;2023-03-14T04:27:34;13.80;74.80
57566;DHT22;63999;43.882;-0.310;2023-03-14T04:29:59;13.80;74.70
57566;DHT22;63999;43.882;-0.310;2023-03-14T04:32:25;13.80;74.70
57566;DHT22;63999;43.882;-0.310;2023-03-14T04:34:53;13.80;74.70
57566;DHT22;63999;43.882;-0.310;2023-03-14T04:37:18;13.80;74.60
57566;DHT22;63999;43.882;-0.310;2023-03-14T04:39:44;13.70;74.50
57566;DHT22;63999;43.882;-0.310;2023-03-14T04:42:10;13.70;74.80
57566;DHT22;63999;43.882;-0.310;2023-03-14T04:44:35;13.70;74.70
57566;DHT22;63999;43.882;-0.310;2023-03-14T04:47:01;13.70;74.70
57566;DHT22;63999;43.882;-0.310;2023-03-14T04:49:28;13.70;74.80
57566;DHT22;63999;43.882;-0.310;2023-03-14T04:51:53;13.70;74.90
57566;DHT22;63999;43.882;-0.310;2023-03-14T04:54:19;13.70;74.90
57566;DHT22;63999;43.882;-0.310;2023-03-14T04:56:45;13.70;74.80
57566;DHT22;63999;43.882;-0.310;2023-03-14T04:59:11;13.70;74.80
57566;DHT22;63999;43.882;-0.310;2023-03-14T05:01:37;13.70;74.80
57566;DHT22;63999;43.882;-0.310;2023-03-14T05:04:03;13.60;74.70
57566;DHT22;63999;43.882;-0.310;2023-03-14T05:06:29;13.60;74.60
57566;DHT22;63999;43.882;-0.310;2023-03-14T05:08:55;13.60;74.80
57566;DHT22;63999;43.882;-0.310;2023-03-14T05:11:21;13.60;74.50
57566;DHT22;63999;43.882;-0.310;2023-03-14T05:13:47;13.60;74.70
57566;DHT22;63999;43.882;-0.310;2023-03-14T05:16:13;13.60;74.60
57566;DHT22;63999;43.882;-0.310;2023-03-14T05:18:38;13.60;74.40
57566;DHT22;63999;43.882;-0.310;2023-03-14T05:21:04;13.60;74.60
57566;DHT22;63999;43.882;-0.310;2023-03-14T05:23:30;13.60;74.50
57566;DHT22;63999;43.882;-0.310;2023-03-14T05:25:56;13.60;74.60
57566;DHT22;63999;43.882;-0.310;2023-03-14T05:28:22;13.60;74.70
57566;DHT22;63999;43.882;-0.310;2023-03-14T05:30:48;13.60;74.50
57566;DHT22;63999;43.882;-0.310;2023-03-14T05:33:14;13.60;74.50
57566;DHT22;63999;43.882;-0.310;2023-03-14T05:35:40;13.60;74.50
57566;DHT22;63999;43.882;-0.310;2023-03-14T05:38:07;13.60;74.50
57566;DHT22;63999;43.882;-0.310;2023-03-14T05:40:33;13.50;74.40
57566;DHT22;63999;43.882;-0.310;2023-03-14T05:43:00;13.50;74.70
57566;DHT22;63999;43.882;-0.310;2023-03-14T05:45:26;13.50;74.70
57566;DHT22;63999;43.882;-0.310;2023-03-14T05:47:52;13.50;74.50
57566;DHT22;63999;43.882;-0.310;2023-03-14T05:50:18;13.50;74.70
57566;DHT22;63999;43.882;-0.310;2023-03-14T05:52:45;13.50;74.70
57566;DHT22;63999;43.882;-0.310;2023-03-14T05:55:11;13.50;74.70
57566;DHT22;63999;43.882;-0.310;2023-03-14T05:57:36;13.50;74.60
57566;DHT22;63999;43.882;-0.310;2023-03-14T06:00:03;13.50;74.80
57566;DHT22;63999;43.882;-0.310;2023-03-14T06:02:29;13.60;74.80
57566;DHT22;63999;43.882;-0.310;2023-03-14T06:04:55;13.60;74.70
57566;DHT22;63999;43.882;-0.310;2023-03-14T06:07:22;13.60;74.80
57566;DHT22;63999;43.882;-0.310;2023-03-14T06:09:50;13.60;74.80
57566;DHT22;63999;43.882;-0.310;2023-03-14T06:12:16;13.60;74.90
57566;DHT22;63999;43.882;-0.310;2023-03-14T06:14:42;13.60;75.00
57566;DHT22;63999;43.882;-0.310;2023-03-14T06:17:08;13.60;75.00
57566;DHT22;63999;43.882;-0.310;2023-03-14T06:19:34;13.60;74.70
57566;DHT22;63999;43.882;-0.310;2023-03-14T06:22:00;13.60;74.70
57566;DHT22;63999;43.882;-0.310;2023-03-14T06:24:26;13.60;74.80
57566;DHT22;63999;43.882;-0.310;2023-03-14T06:26:52;13.50;74.80
57566;DHT22;63999;43.882;-0.310;2023-03-14T06:29:17;13.50;74.80
57566;DHT22;63999;43.882;-0.310;2023-03-14T06:31:43;13.50;74.70
57566;DHT22;63999;43.882;-0.310;2023-03-14T06:34:09;13.50;74.70
57566;DHT22;63999;43.882;-0.310;2023-03-14T06:36:35;13.50;74.60
57566;DHT22;63999;43.882;-0.310;2023-03-14T06:39:00;13.40;74.50
57566;DHT22;63999;43.882;-0.310;2023-03-14T06:41:26;13.30;74.60
57566;DHT22;63999;43.882;-0.310;2023-03-14T06:43:52;13.30;74.70
57566;DHT22;63999;43.882;-0.310;2023-03-14T06:46:21;13.40;74.60
57566;DHT22;63999;43.882;-0.310;2023-03-14T06:48:49;13.40;74.70
57566;DHT22;63999;43.882;-0.310;2023-03-14T06:51:16;13.50;74.70
57566;DHT22;63999;43.882;-0.310;2023-03-14T06:53:47;13.50;74.50
57566;DHT22;63999;43.882;-0.310;2023-03-14T06:56:20;13.40;74.50
57566;DHT22;63999;43.882;-0.310;2023-03-14T06:58:47;13.40;74.50
57566;DHT22;63999;43.882;-0.310;2023-03-14T07:01:41;13.40;74.70
57566;DHT22;63999;43.882;-0.310;2023-03-14T07:04:19;13.50;74.70
57566;DHT22;63999;43.882;-0.310;2023-03-14T07:06:47;13.50;74.70
57566;DHT22;63999;43.882;-0.310;2023-03-14T07:09:15;13.50;75.00
57566;DHT22;63999;43.882;-0.310;2023-03-14T07:11:43;13.50;75.00
57566;DHT22;63999;43.882;-0.310;2023-03-14T07:14:10;13.50;74.70
57566;DHT22;63999;43.882;-0.310;2023-03-14T07:16:37;13.50;74.80
57566;DHT22;63999;43.882;-0.310;2023-03-14T07:19:08;13.50;75.00
57566;DHT22;63999;43.882;-0.310;2023-03-14T07:21:37;13.50;75.00
57566;DHT22;63999;43.882;-0.310;2023-03-14T07:24:03;13.50;75.00
57566;DHT22;63999;43.882;-0.310;2023-03-14T07:26:29;13.50;75.10
57566;DHT22;63999;43.882;-0.310;2023-03-14T07:28:55;13.50;75.10
57566;DHT22;63999;43.882;-0.310;2023-03-14T07:31:22;13.50;75.20
57566;DHT22;63999;43.882;-0.310;2023-03-14T07:33:48;13.50;75.20
57566;DHT22;63999;43.882;-0.310;2023-03-14T07:36:14;13.50;75.20
57566;DHT22;63999;43.882;-0.310;2023-03-14T07:38:40;13.50;75.10
57566;DHT22;63999;43.882;-0.310;2023-03-14T07:41:07;13.50;75.20
57566;DHT22;63999;43.882;-0.310;2023-03-14T07:43:33;13.50;75.50
57566;DHT22;63999;43.882;-0.310;2023-03-14T07:46:00;13.50;75.50
57566;DHT22;63999;43.882;-0.310;2023-03-14T07:48:27;13.50;75.40
57566;DHT22;63999;43.882;-0.310;2023-03-14T07:50:54;13.60;75.40
57566;DHT22;63999;43.882;-0.310;2023-03-14T07:53:22;13.60;75.50
57566;DHT22;63999;43.882;-0.310;2023-03-14T07:55:49;13.70;75.10
57566;DHT22;63999;43.882;-0.310;2023-03-14T07:58:16;13.60;74.70
57566;DHT22;63999;43.882;-0.310;2023-03-14T08:00:43;13.60;74.80
57566;DHT22;63999;43.882;-0.310;2023-03-14T08:03:09;13.50;74.80
57566;DHT22;63999;43.882;-0.310;2023-03-14T08:05:37;13.50;75.00
57566;DHT22;63999;43.882;-0.310;2023-03-14T08:08:04;13.50;74.90
57566;DHT22;63999;43.882;-0.310;2023-03-14T08:10:31;13.50;74.80
57566;DHT22;63999;43.882;-0.310;2023-03-14T08:12:57;13.50;74.90
57566;DHT22;63999;43.882;-0.310;2023-03-14T08:15:28;13.40;74.80
57566;DHT22;63999;43.882;-0.310;2023-03-14T08:17:55;13.40;74.70
57566;DHT22;63999;43.882;-0.310;2023-03-14T08:20:29;13.30;74.70
57566;DHT22;63999;43.882;-0.310;2023-03-14T08:23:00;13.30;74.70
57566;DHT22;63999;43.882;-0.310;2023-03-14T08:25:40;13.30;74.70
57566;DHT22;63999;43.882;-0.310;2023-03-14T08:28:27;13.30;74.70
57566;DHT22;63999;43.882;-0.310;2023-03-14T08:31:02;13.30;74.80
57566;DHT22;63999;43.882;-0.310;2023-03-14T08:33:31;13.30;74.80
57566;DHT22;63999;43.882;-0.310;2023-03-14T08:35:59;13.30;74.80
57566;DHT22;63999;43.882;-0.310;2023-03-14T08:38:26;13.30;74.90
57566;DHT22;63999;43.882;-0.310;2023-03-14T08:40:59;13.30;74.80
57566;DHT22;63999;43.882;-0.310;2023-03-14T08:43:26;13.30;74.80
57566;DHT22;63999;43.882;-0.310;2023-03-14T08:45:51;13.30;74.80
57566;DHT22;63999;43.882;-0.310;2023-03-14T08:48:17;13.30;74.90
57566;DHT22;63999;43.882;-0.310;2023-03-14T08:50:45;13.30;75.10
57566;DHT22;63999;43.882;-0.310;2023-03-14T08:53:11;13.30;75.20
57566;DHT22;63999;43.882;-0.310;2023-03-14T08:55:37;13.30;74.90
57566;DHT22;63999;43.882;-0.310;2023-03-14T08:58:04;13.30;75.00
57566;DHT22;63999;43.882;-0.310;2023-03-14T09:00:30;13.30;75.00
57566;DHT22;63999;43.882;-0.310;2023-03-14T09:02:56;13.30;74.90
57566;DHT22;63999;43.882;-0.310;2023-03-14T09:05:22;13.30;75.00
57566;DHT22;63999;43.882;-0.310;2023-03-14T09:07:48;13.30;75.10
57566;DHT22;63999;43.882;-0.310;2023-03-14T09:10:15;13.30;75.10
57566;DHT22;63999;43.882;-0.310;2023-03-14T09:12:41;13.20;75.20
57566;DHT22;63999;43.882;-0.310;2023-03-14T09:15:07;13.20;75.20
57566;DHT22;63999;43.882;-0.310;2023-03-14T09:17:34;13.20;75.20
57566;DHT22;63999;43.882;-0.310;2023-03-14T09:20:00;13.20;75.10
57566;DHT22;63999;43.882;-0.310;2023-03-14T09:22:26;13.20;75.20
57566;DHT22;63999;43.882;-0.310;2023-03-14T09:24:53;13.10;75.20
57566;DHT22;63999;43.882;-0.310;2023-03-14T09:27:19;13.10;75.20
57566;DHT22;63999;43.882;-0.310;2023-03-14T09:29:46;13.20;75.00
57566;DHT22;63999;43.882;-0.310;2023-03-14T09:32:12;13.10;75.10
57566;DHT22;63999;43.882;-0.310;2023-03-14T09:34:41;13.10;75.20
57566;DHT22;63999;43.882;-0.310;2023-03-14T09:37:08;13.10;75.20
57566;DHT22;63999;43.882;-0.310;2023-03-14T09:39:34;13.10;75.10
57566;DHT22;63999;43.882;-0.310;2023-03-14T09:42:04;13.10;75.00
57566;DHT22;63999;43.882;-0.310;2023-03-14T09:44:51;13.10;75.10
57566;DHT22;63999;43.882;-0.310;2023-03-14T09:47:19;13.10;75.10
57566;DHT22;63999;43.882;-0.310;2023-03-14T09:49:45;13.00;75.00
57566;DHT22;63999;43.882;-0.310;2023-03-14T09:52:23;13.10;75.10
57566;DHT22;63999;43.882;-0.310;2023-03-14T09:54:53;13.00;75.20
57566;DHT22;63999;43.882;-0.310;2023-03-14T09:57:24;13.10;75.20
57566;DHT22;63999;43.882;-0.310;2023-03-14T09:59:53;13.10;75.20
57566;DHT22;63999;43.882;-0.310;2023-03-14T10:02:28;13.10;75.30
57566;DHT22;63999;43.882;-0.310;2023-03-14T10:04:57;13.10;75.40
57566;DHT22;63999;43.882;-0.310;2023-03-14T10:07:30;13.10;75.40
57566;DHT22;63999;43.882;-0.310;2023-03-14T10:10:01;13.10;75.50
57566;DHT22;63999;43.882;-0.310;2023-03-14T10:12:33;13.10;75.50
57566;DHT22;63999;43.882;-0.310;2023-03-14T10:15:04;13.10;75.50
57566;DHT22;63999;43.882;-0.310;2023-03-14T10:17:39;13.10;75.60
57566;DHT22;63999;43.882;-0.310;2023-03-14T10:26:27;13.10;76.00
57566;DHT22;63999;43.882;-0.310;2023-03-14T10:28:53;13.10;76.00
57566;DHT22;63999;43.882;-0.310;2023-03-14T10:31:26;13.10;76.20
57566;DHT22;63999;43.882;-0.310;2023-03-14T10:34:04;13.20;76.10
57566;DHT22;63999;43.882;-0.310;2023-03-14T10:36:32;13.30;76.50
57566;DHT22;63999;43.882;-0.310;2023-03-14T10:42:06;13.30;76.30
57566;DHT22;63999;43.882;-0.310;2023-03-14T10:44:39;13.30;76.30
57566;DHT22;63999;43.882;-0.310;2023-03-14T10:47:06;13.30;76.40
57566;DHT22;63999;43.882;-0.310;2023-03-14T10:49:36;13.30;76.40
57566;DHT22;63999;43.882;-0.310;2023-03-14T10:52:23;13.30;76.40
57566;DHT22;63999;43.882;-0.310;2023-03-14T10:55:08;13.30;76.50
57566;DHT22;63999;43.882;-0.310;2023-03-14T10:57:42;13.30;76.50
57566;DHT22;63999;43.882;-0.310;2023-03-14T11:00:29;13.30;76.70
57566;DHT22;63999;43.882;-0.310;2023-03-14T11:03:11;13.30;76.70
57566;DHT22;63999;43.882;-0.310;2023-03-14T11:08:29;13.30;76.80
57566;DHT22;63999;43.882;-0.310;2023-03-14T11:11:12;13.30;76.70
57566;DHT22;63999;43.882;-0.310;2023-03-14T11:19:12;13.30;76.90
57566;DHT22;63999;43.882;-0.310;2023-03-14T11:21:46;13.20;76.90
57566;DHT22;63999;43.882;-0.310;2023-03-14T11:24:25;13.20;76.90
57566;DHT22;63999;43.882;-0.310;2023-03-14T11:32:40;13.10;77.00
57566;DHT22;63999;43.882;-0.310;2023-03-14T11:35:33;13.10;76.90
57566;DHT22;63999;43.882;-0.310;2023-03-14T11:38:19;13.10;77.00
57566;DHT22;63999;43.882;-0.310;2023-03-14T11:40:57;13.20;76.80
57566;DHT22;63999;43.882;-0.310;2023-03-14T11:43:37;13.20;77.00
57566;DHT22;63999;43.882;-0.310;2023-03-14T11:46:18;13.20;77.00
57566;DHT22;63999;43.882;-0.310;2023-03-14T11:51:46;13.20;77.10
57566;DHT22;63999;43.882;-0.310;2023-03-14T11:57:03;13.20;77.10
57566;DHT22;63999;43.882;-0.310;2023-03-14T11:59:32;13.10;77.10
57566;DHT22;63999;43.882;-0.310;2023-03-14T12:02:14;13.10;77.00
57566;DHT22;63999;43.882;-0.310;2023-03-14T12:07:43;13.10;77.20
57566;DHT22;63999;43.882;-0.310;2023-03-14T12:10:20;13.10;77.20
57566;DHT22;63999;43.882;-0.310;2023-03-14T12:12:47;13.10;77.20
57566;DHT22;63999;43.882;-0.310;2023-03-14T12:15:21;13.10;77.30
57566;DHT22;63999;43.882;-0.310;2023-03-14T12:17:58;13.10;77.30
57566;DHT22;63999;43.882;-0.310;2023-03-14T12:20:26;13.20;77.40
57566;DHT22;63999;43.882;-0.310;2023-03-14T12:23:05;13.10;77.30
57566;DHT22;63999;43.882;-0.310;2023-03-14T12:25:36;13.20;77.30
57566;DHT22;63999;43.882;-0.310;2023-03-14T12:28:21;13.20;77.40
57566;DHT22;63999;43.882;-0.310;2023-03-14T12:30:56;13.20;77.30
57566;DHT22;63999;43.882;-0.310;2023-03-14T12:33:27;13.20;77.30
57566;DHT22;63999;43.882;-0.310;2023-03-14T12:36:02;13.20;77.40
57566;DHT22;63999;43.882;-0.310;2023-03-14T12:41:13;13.30;77.30
57566;DHT22;63999;43.882;-0.310;2023-03-14T12:43:43;13.30;77.10
57566;DHT22;63999;43.882;-0.310;2023-03-14T12:48:47;13.30;77.20
57566;DHT22;63999;43.882;-0.310;2023-03-14T12:51:19;13.30;77.10
57566;DHT22;63999;43.882;-0.310;2023-03-14T12:56:58;13.30;77.00
57566;DHT22;63999;43.882;-0.310;2023-03-14T12:59:38;13.30;77.00
57566;DHT22;63999;43.882;-0.310;2023-03-14T13:04:45;13.30;76.60
57566;DHT22;63999;43.882;-0.310;2023-03-14T13:07:33;13.40;76.60
57566;DHT22;63999;43.882;-0.310;2023-03-14T13:10:03;13.30;76.50
57566;DHT22;63999;43.882;-0.310;2023-03-14T13:15:23;13.30;76.40
57566;DHT22;63999;43.882;-0.310;2023-03-14T13:17:54;13.30;76.10
57566;DHT22;63999;43.882;-0.310;2023-03-14T13:22:53;13.30;76.10
57566;DHT22;63999;43.882;-0.310;2023-03-14T13:25:19;13.30;76.00
57566;DHT22;63999;43.882;-0.310;2023-03-14T13:27:49;13.30;75.90
57566;DHT22;63999;43.882;-0.310;2023-03-14T13:30:23;13.30;75.90
57566;DHT22;63999;43.882;-0.310;2023-03-14T13:32:51;13.30;75.80
57566;DHT22;63999;43.882;-0.310;2023-03-14T13:35:25;13.30;76.20
57566;DHT22;63999;43.882;-0.310;2023-03-14T13:38:00;13.30;76.50
57566;DHT22;63999;43.882;-0.310;2023-03-14T13:40:33;13.30;76.80
57566;DHT22;63999;43.882;-0.310;2023-03-14T13:43:06;13.30;77.00
57566;DHT22;63999;43.882;-0.310;2023-03-14T13:45:56;13.30;77.20
57566;DHT22;63999;43.882;-0.310;2023-03-14T13:48:27;13.30;77.30
57566;DHT22;63999;43.882;-0.310;2023-03-14T13:53:25;13.40;77.40
57566;DHT22;63999;43.882;-0.310;2023-03-14T13:55:51;13.40;77.50
57566;DHT22;63999;43.882;-0.310;2023-03-14T13:58:24;13.40;77.50
57566;DHT22;63999;43.882;-0.310;2023-03-14T14:00:55;13.40;77.60
57566;DHT22;63999;43.882;-0.310;2023-03-14T14:03:23;13.50;77.70
57566;DHT22;63999;43.882;-0.310;2023-03-14T14:05:49;13.50;77.80
57566;DHT22;63999;43.882;-0.310;2023-03-14T14:08:16;13.60;77.60
57566;DHT22;63999;43.882;-0.310;2023-03-14T14:10:42;13.60;77.20
57566;DHT22;63999;43.882;-0.310;2023-03-14T14:13:10;13.60;77.10
57566;DHT22;63999;43.882;-0.310;2023-03-14T14:15:44;13.60;76.90
57566;DHT22;63999;43.882;-0.310;2023-03-14T14:18:16;13.50;76.80
57566;DHT22;63999;43.882;-0.310;2023-03-14T14:20:47;13.50;76.90
57566;DHT22;63999;43.882;-0.310;2023-03-14T14:23:22;13.50;76.60
57566;DHT22;63999;43.882;-0.310;2023-03-14T14:25:58;13.50;76.10
57566;DHT22;63999;43.882;-0.310;2023-03-14T14:28:33;13.50;76.10
57566;DHT22;63999;43.882;-0.310;2023-03-14T14:36:41;13.50;75.80
57566;DHT22;63999;43.882;-0.310;2023-03-14T14:41:45;13.50;75.50
57566;DHT22;63999;43.882;-0.310;2023-03-14T14:44:13;13.50;75.40
57566;DHT22;63999;43.882;-0.310;2023-03-14T14:46:42;13.50;75.60
57566;DHT22;63999;43.882;-0.310;2023-03-14T14:49:19;13.50;75.20
57566;DHT22;63999;43.882;-0.310;2023-03-14T14:51:50;13.50;75.00
57566;DHT22;63999;43.882;-0.310;2023-03-14T14:54:18;13.50;75.00
57566;DHT22;63999;43.882;-0.310;2023-03-14T14:56:53;13.50;75.00
57566;DHT22;63999;43.882;-0.310;2023-03-14T14:59:25;13.50;74.70
57566;DHT22;63999;43.882;-0.310;2023-03-14T15:02:01;13.50;74.80
57566;DHT22;63999;43.882;-0.310;2023-03-14T15:04:34;13.50;74.60
57566;DHT22;63999;43.882;-0.310;2023-03-14T15:07:01;13.50;74.60
57566;DHT22;63999;43.882;-0.310;2023-03-14T15:09:27;13.50;74.40
57566;DHT22;63999;43.882;-0.310;2023-03-14T15:11:53;13.50;74.40
57566;DHT22;63999;43.882;-0.310;2023-03-14T15:14:19;13.50;74.30
57566;DHT22;63999;43.882;-0.310;2023-03-14T15:16:45;13.50;74.20
57566;DHT22;63999;43.882;-0.310;2023-03-14T15:19:29;13.50;74.30
57566;DHT22;63999;43.882;-0.310;2023-03-14T15:21:58;13.50;74.30
57566;DHT22;63999;43.882;-0.310;2023-03-14T15:24:24;13.50;74.00
57566;DHT22;63999;43.882;-0.310;2023-03-14T15:26:50;13.60;74.30
57566;DHT22;63999;43.882;-0.310;2023-03-14T15:29:16;13.60;74.10
57566;DHT22;63999;43.882;-0.310;2023-03-14T15:31:43;13.60;74.00
57566;DHT22;63999;43.882;-0.310;2023-03-14T15:34:09;13.60;73.80
57566;DHT22;63999;43.882;-0.310;2023-03-14T15:36:37;13.60;74.00
57566;DHT22;63999;43.882;-0.310;2023-03-14T15:39:06;13.60;74.00
57566;DHT22;63999;43.882;-0.310;2023-03-14T15:41:32;13.60;73.80
57566;DHT22;63999;43.882;-0.310;2023-03-14T15:43:58;13.50;73.90
57566;DHT22;63999;43.882;-0.310;2023-03-14T15:46:24;13.50;73.80
57566;DHT22;63999;43.882;-0.310;2023-03-14T15:48:52;13.50;73.70
57566;DHT22;63999;43.882;-0.310;2023-03-14T15:51:18;13.50;74.10
57566;DHT22;63999;43.882;-0.310;2023-03-14T15:53:47;13.50;74.30
57566;DHT22;63999;43.882;-0.310;2023-03-14T15:56:17;13.60;74.50
57566;DHT22;63999;43.882;-0.310;2023-03-14T15:58:45;13.60;74.70
57566;DHT22;63999;43.882;-0.310;2023-03-14T16:01:14;13.60;75.00
57566;DHT22;63999;43.882;-0.310;2023-03-14T16:03:45;13.60;74.90
57566;DHT22;63999;43.882;-0.310;2023-03-14T16:06:12;13.70;75.10
57566;DHT22;63999;43.882;-0.310;2023-03-14T16:08:38;13.70;75.30
57566;DHT22;63999;43.882;-0.310;2023-03-14T16:11:04;13.70;75.30
57566;DHT22;63999;43.882;-0.310;2023-03-14T16:13:30;13.70;75.50
57566;DHT22;63999;43.882;-0.310;2023-03-14T16:15:59;13.70;75.60
57566;DHT22;63999;43.882;-0.310;2023-03-14T16:18:28;13.70;75.50
57566;DHT22;63999;43.882;-0.310;2023-03-14T16:20:58;13.70;75.60
57566;DHT22;63999;43.882;-0.310;2023-03-14T16:23:24;13.70;75.70
57566;DHT22;63999;43.882;-0.310;2023-03-14T16:25:52;13.70;75.80
57566;DHT22;63999;43.882;-0.310;2023-03-14T16:28:18;13.70;75.90
57566;DHT22;63999;43.882;-0.310;2023-03-14T16:30:44;13.70;75.90
57566;DHT22;63999;43.882;-0.310;2023-03-14T16:33:13;13.60;76.00
57566;DHT22;63999;43.882;-0.310;2023-03-14T16:35:40;13.70;76.20
57566;DHT22;63999;43.882;-0.310;2023-03-14T16:38:07;13.60;76.20
57566;DHT22;63999;43.882;-0.310;2023-03-14T16:40:33;13.60;76.20